createdAt,value
2023-08-26T00:03:33.009Z,18.68
2023-08-26T00:05:59.962Z,18.70
2023-08-26T00:08:26.834Z,18.66
2023-08-26T00:10:53.732Z,18.57
2023-08-26T00:13:20.471Z,18.75
2023-08-26T00:15:47.450Z,18.61
2023-08-26T00:18:14.475Z,18.47
2023-08-26T00:20:42.031Z,18.65
2023-08-26T00:23:09.847Z,18.58
2023-08-26T00:25:36.704Z,18.64
2023-08-26T00:28:04.290Z,18.63
2023-08-26T00:30:31.684Z,18.72
2023-08-26T00:32:58.556Z,18.82
2023-08-26T00:35:25.751Z,18.90
2023-08-26T00:37:52.998Z,19.19
2023-08-26T00:40:19.774Z,18.96
2023-08-26T00:42:46.650Z,19.24
2023-08-26T00:45:14.772Z,19.08
2023-08-26T00:47:42.685Z,19.31
2023-08-26T00:50:10.056Z,19.33
2023-08-26T00:52:37.688Z,19.69
2023-08-26T00:55:06.642Z,19.92
2023-08-26T00:57:34.016Z,19.95
2023-08-26T01:00:01.145Z,20.12
2023-08-26T01:02:28.520Z,20.16
2023-08-26T01:04:55.874Z,19.82
2023-08-26T01:07:22.690Z,18.76
2023-08-26T01:09:50.662Z,18.77
2023-08-26T01:12:34.317Z,19.16
2023-08-26T01:15:10.989Z,19.31
2023-08-26T01:17:40.009Z,19.16
2023-08-26T01:20:08.760Z,19.33
2023-08-26T01:22:38.308Z,19.29
2023-08-26T01:25:05.574Z,19.17
2023-08-26T01:27:32.522Z,19.18
2023-08-26T01:30:00.422Z,19.21
2023-08-26T01:32:44.081Z,18.93
2023-08-26T01:35:16.814Z,18.80
2023-08-26T01:37:45.001Z,18.87
2023-08-26T01:40:14.130Z,18.75
2023-08-26T01:42:43.331Z,19.19
2023-08-26T01:45:13.135Z,19.09
2023-08-26T01:47:40.345Z,19.38
2023-08-26T01:50:07.822Z,19.43
2023-08-26T01:52:36.015Z,19.16
2023-08-26T01:55:04.601Z,19.51
2023-08-26T01:57:31.647Z,19.69
2023-08-26T01:59:58.669Z,19.75
2023-08-26T02:02:25.526Z,19.75
2023-08-26T02:04:52.490Z,19.77
2023-08-26T02:07:21.320Z,19.31
2023-08-26T02:09:48.559Z,19.52
2023-08-26T02:12:15.589Z,19.54
2023-08-26T02:14:42.544Z,19.31
2023-08-26T02:17:09.322Z,19.21
2023-08-26T02:19:36.266Z,19.46
2023-08-26T02:22:03.166Z,19.51
2023-08-26T02:24:30.515Z,19.38
2023-08-26T02:26:57.395Z,19.42
2023-08-26T02:29:24.186Z,19.37
2023-08-26T02:31:51.070Z,18.93
2023-08-26T02:34:18.714Z,19.02
2023-08-26T02:36:45.573Z,19.04
2023-08-26T02:39:12.664Z,19.19
2023-08-26T02:41:39.550Z,19.07
2023-08-26T02:44:07.029Z,19.11
2023-08-26T02:46:34.804Z,19.11
2023-08-26T02:49:02.425Z,19.05
2023-08-26T02:51:29.683Z,19.02
2023-08-26T02:53:56.511Z,19.17
2023-08-26T02:56:23.666Z,19.12
2023-08-26T02:58:50.527Z,18.95
2023-08-26T03:01:18.795Z,19.21
2023-08-26T03:03:46.347Z,19.08
2023-08-26T03:06:13.926Z,18.97
2023-08-26T03:08:41.279Z,19.06
2023-08-26T03:11:10.966Z,19.02
2023-08-26T03:13:37.679Z,18.99
2023-08-26T03:16:09.232Z,19.15
2023-08-26T03:18:36.845Z,18.92
2023-08-26T03:21:05.287Z,18.90
2023-08-26T03:23:32.557Z,19.13
2023-08-26T03:26:00.166Z,18.97
2023-08-26T03:28:27.408Z,18.99
2023-08-26T03:30:54.980Z,18.87
2023-08-26T03:33:21.989Z,18.94
2023-08-26T03:35:49.687Z,19.12
2023-08-26T03:38:16.611Z,19.25
2023-08-26T03:40:43.318Z,19.18
2023-08-26T03:43:10.168Z,19.18
2023-08-26T03:45:37.104Z,19.35
2023-08-26T03:48:05.976Z,19.53
2023-08-26T03:50:33.000Z,19.56
2023-08-26T03:53:00.875Z,19.59
2023-08-26T03:55:28.245Z,19.78
2023-08-26T03:57:56.992Z,20.12
2023-08-26T04:00:24.065Z,20.41
2023-08-26T04:02:51.104Z,20.27
2023-08-26T04:05:18.051Z,20.33
2023-08-26T04:07:45.194Z,20.46
2023-08-26T04:10:12.794Z,20.23
2023-08-26T04:12:39.688Z,20.06
2023-08-26T04:15:08.614Z,19.97
2023-08-26T04:17:35.958Z,19.49
2023-08-26T04:20:02.845Z,19.25
2023-08-26T04:22:29.866Z,19.40
2023-08-26T04:24:56.812Z,19.26
2023-08-26T04:27:23.802Z,19.71
2023-08-26T04:29:50.667Z,19.82
2023-08-26T04:32:19.057Z,19.69
2023-08-26T04:34:47.489Z,19.70
2023-08-26T04:37:14.386Z,20.13
2023-08-26T04:39:41.211Z,20.20
2023-08-26T04:42:08.966Z,20.18
2023-08-26T04:44:36.178Z,19.96
2023-08-26T04:47:03.655Z,20.10
2023-08-26T04:49:30.600Z,20.07
2023-08-26T04:51:58.562Z,20.25
2023-08-26T04:54:27.542Z,20.32
2023-08-26T04:56:55.207Z,20.31
2023-08-26T04:59:22.307Z,20.36
2023-08-26T05:01:49.367Z,20.66
2023-08-26T05:04:16.306Z,20.87
2023-08-26T05:06:43.108Z,20.89
2023-08-26T05:09:09.884Z,20.73
2023-08-26T05:11:36.704Z,20.63
2023-08-26T05:14:05.244Z,20.56
2023-08-26T05:16:32.091Z,20.73
2023-08-26T05:18:58.936Z,20.69
2023-08-26T05:21:25.972Z,19.89
2023-08-26T05:23:53.188Z,19.72
2023-08-26T05:26:21.386Z,20.05
2023-08-26T05:29:10.040Z,20.36
2023-08-26T05:31:37.572Z,20.42
2023-08-26T05:34:04.473Z,20.46
2023-08-26T05:36:31.532Z,20.29
2023-08-26T05:38:58.447Z,20.02
2023-08-26T05:41:25.254Z,20.08
2023-08-26T05:43:53.627Z,20.12
2023-08-26T05:46:21.910Z,20.16
2023-08-26T05:48:49.250Z,20.09
2023-08-26T05:51:16.575Z,19.74
2023-08-26T05:53:43.388Z,19.37
2023-08-26T05:56:10.922Z,19.60
2023-08-26T05:58:38.896Z,19.53
2023-08-26T06:01:05.688Z,19.08
2023-08-26T06:03:32.942Z,18.67
2023-08-26T06:05:59.983Z,18.98
2023-08-26T06:08:26.876Z,19.07
2023-08-26T06:10:57.330Z,19.57
2023-08-26T06:13:24.575Z,20.10
2023-08-26T06:15:59.722Z,20.25
2023-08-26T06:18:27.676Z,20.05
2023-08-26T06:20:55.012Z,19.59
2023-08-26T06:23:21.983Z,19.36
2023-08-26T06:25:53.352Z,19.50
2023-08-26T06:28:21.254Z,19.85
2023-08-26T06:30:48.965Z,20.02
2023-08-26T06:33:16.780Z,20.25
2023-08-26T06:35:48.752Z,20.12
2023-08-26T06:38:16.513Z,20.17
2023-08-26T06:40:43.798Z,20.13
2023-08-26T06:43:10.787Z,20.13
2023-08-26T06:45:37.548Z,19.72
2023-08-26T06:48:09.123Z,19.35
2023-08-26T06:50:36.436Z,19.21
2023-08-26T06:53:03.193Z,19.42
2023-08-26T06:55:29.922Z,19.05
2023-08-26T06:57:57.160Z,19.21
2023-08-26T07:00:24.290Z,18.76
2023-08-26T07:02:51.475Z,18.86
2023-08-26T07:05:18.812Z,19.15
2023-08-26T07:07:45.710Z,18.76
2023-08-26T07:10:12.683Z,18.92
2023-08-26T07:12:39.483Z,19.22
2023-08-26T07:15:06.688Z,19.14
2023-08-26T07:17:34.573Z,19.22
2023-08-26T07:20:01.370Z,19.29
2023-08-26T07:22:29.967Z,19.20
2023-08-26T07:24:59.677Z,19.66
2023-08-26T07:27:26.532Z,19.75
2023-08-26T07:29:54.502Z,19.59
2023-08-26T07:32:21.364Z,19.62
2023-08-26T07:34:48.136Z,19.47
2023-08-26T07:37:15.288Z,19.04
2023-08-26T07:39:42.070Z,18.84
2023-08-26T07:42:09.032Z,18.37
2023-08-26T07:44:35.879Z,18.07
2023-08-26T07:47:02.734Z,17.85
2023-08-26T07:49:29.739Z,17.88
2023-08-26T07:51:56.561Z,17.95
2023-08-26T07:54:23.425Z,17.66
2023-08-26T07:56:50.400Z,17.83
2023-08-26T07:59:17.612Z,17.83
2023-08-26T08:01:44.529Z,17.71
2023-08-26T08:04:12.615Z,17.65
2023-08-26T08:06:40.126Z,17.95
2023-08-26T08:09:07.650Z,18.18
2023-08-26T08:11:34.544Z,18.26
2023-08-26T08:14:01.980Z,18.25
2023-08-26T08:16:29.157Z,18.39
2023-08-26T08:18:56.134Z,18.31
2023-08-26T08:21:22.913Z,18.00
2023-08-26T08:23:50.083Z,17.88
2023-08-26T08:26:17.370Z,17.92
2023-08-26T08:28:44.242Z,18.11
2023-08-26T08:31:11.014Z,17.75
2023-08-26T08:33:38.573Z,17.93
2023-08-26T08:36:05.876Z,18.22
2023-08-26T08:38:32.799Z,18.03
2023-08-26T08:41:00.444Z,18.09
2023-08-26T08:43:31.529Z,18.40
2023-08-26T08:45:59.114Z,18.68
2023-08-26T08:48:26.066Z,18.83
2023-08-26T08:50:56.465Z,18.88
2023-08-26T08:53:31.564Z,18.98
2023-08-26T08:56:01.699Z,19.79
2023-08-26T08:58:31.672Z,20.05
2023-08-26T09:01:00.502Z,20.57
2023-08-26T09:03:27.558Z,20.03
2023-08-26T09:05:55.045Z,20.47
2023-08-26T09:08:26.042Z,20.44
2023-08-26T09:10:53.926Z,20.82
2023-08-26T09:13:20.767Z,20.60
2023-08-26T09:15:47.572Z,20.45
2023-08-26T09:18:16.742Z,20.34
2023-08-26T09:20:47.001Z,20.95
2023-08-26T09:23:14.064Z,20.86
2023-08-26T09:25:53.449Z,20.87
2023-08-26T09:28:21.113Z,20.85
2023-08-26T09:31:04.983Z,20.80
2023-08-26T09:33:31.916Z,21.63
2023-08-26T09:38:33.013Z,21.78
2023-08-26T09:41:01.703Z,21.57
2023-08-26T09:43:31.336Z,22.03
2023-08-26T09:45:58.474Z,21.76
2023-08-26T09:48:25.823Z,21.54
2023-08-26T09:50:52.890Z,21.46
2023-08-26T09:53:33.683Z,21.90
2023-08-26T09:56:01.450Z,21.86
2023-08-26T09:58:29.753Z,22.49
2023-08-26T10:00:58.843Z,22.57
2023-08-26T10:03:26.875Z,22.59
2023-08-26T10:05:57.011Z,22.34
2023-08-26T10:08:31.322Z,22.60
2023-08-26T10:11:04.158Z,22.30
2023-08-26T10:13:36.709Z,22.47
2023-08-26T10:16:07.270Z,22.25
2023-08-26T10:18:49.212Z,22.16
2023-08-26T10:21:16.962Z,22.44
2023-08-26T10:23:44.157Z,21.94
2023-08-26T10:26:11.874Z,22.17
2023-08-26T10:28:41.051Z,21.85
2023-08-26T10:31:09.484Z,22.45
2023-08-26T10:34:13.089Z,22.22
2023-08-26T10:36:41.509Z,22.17
2023-08-26T10:39:22.116Z,22.31
2023-08-26T10:42:15.501Z,22.55
2023-08-26T10:44:46.658Z,22.51
2023-08-26T10:47:14.208Z,22.92
2023-08-26T10:49:41.054Z,23.75
2023-08-26T10:52:20.531Z,23.87
2023-08-26T10:54:48.221Z,23.45
2023-08-26T10:57:15.427Z,23.54
2023-08-26T10:59:44.140Z,23.39
2023-08-26T11:02:15.314Z,23.92
2023-08-26T11:04:46.567Z,24.79
2023-08-26T11:07:17.871Z,24.56
2023-08-26T11:09:45.115Z,24.20
2023-08-26T11:12:29.342Z,24.82
2023-08-26T11:15:07.713Z,24.23
2023-08-26T11:17:51.008Z,24.06
2023-08-26T11:20:18.988Z,23.85
2023-08-26T11:22:46.968Z,24.11
2023-08-26T11:25:18.520Z,23.51
2023-08-26T11:27:45.606Z,24.21
2023-08-26T11:30:13.149Z,24.63
2023-08-26T11:32:41.535Z,24.55
2023-08-26T11:35:11.739Z,24.81
2023-08-26T11:37:44.112Z,24.17
2023-08-26T11:40:12.009Z,24.45
2023-08-26T11:42:40.877Z,25.27
2023-08-26T11:45:11.859Z,25.45
2023-08-26T11:47:40.638Z,25.32
2023-08-26T11:50:12.632Z,25.89
2023-08-26T11:52:42.798Z,25.39
2023-08-26T11:55:11.102Z,25.72
2023-08-26T11:57:44.601Z,25.88
2023-08-26T12:00:18.006Z,26.53
2023-08-26T12:02:50.236Z,26.94
2023-08-26T12:05:17.538Z,26.80
2023-08-26T12:07:49.434Z,26.06
2023-08-26T12:10:19.080Z,26.71
2023-08-26T12:12:48.962Z,26.96
2023-08-26T12:15:18.181Z,26.91
2023-08-26T12:17:48.939Z,27.62
2023-08-26T12:20:35.932Z,27.75
2023-08-26T12:23:05.704Z,27.69
2023-08-26T12:25:43.499Z,27.73
2023-08-26T12:28:27.780Z,28.18
2023-08-26T12:30:55.001Z,28.30
2023-08-26T12:33:26.422Z,28.32
2023-08-26T12:35:58.555Z,28.77
2023-08-26T12:38:25.478Z,28.65
2023-08-26T12:40:52.779Z,27.58
2023-08-26T12:43:20.519Z,28.57
2023-08-26T12:45:49.926Z,28.88
2023-08-26T12:48:31.413Z,29.04
2023-08-26T12:51:04.241Z,28.61
2023-08-26T12:53:31.059Z,29.01
2023-08-26T12:56:03.033Z,28.78
2023-08-26T12:58:31.088Z,28.26
2023-08-26T13:00:58.886Z,29.93
2023-08-26T13:03:27.663Z,28.42
2023-08-26T13:05:56.638Z,28.68
2023-08-26T13:08:23.955Z,28.11
2023-08-26T13:10:51.951Z,27.38
2023-08-26T13:13:19.045Z,27.57
2023-08-26T13:15:46.606Z,28.15
2023-08-26T13:18:13.883Z,28.49
2023-08-26T13:20:41.465Z,28.45
2023-08-26T13:23:10.750Z,28.82
2023-08-26T13:25:38.737Z,28.58
2023-08-26T13:28:07.438Z,29.40
2023-08-26T13:30:36.172Z,30.00
2023-08-26T13:33:04.148Z,30.65
2023-08-26T13:35:31.658Z,29.54
2023-08-26T13:37:59.752Z,29.63
2023-08-26T13:40:26.976Z,28.13
2023-08-26T13:42:56.096Z,28.00
2023-08-26T13:45:22.872Z,28.23
2023-08-26T13:47:50.103Z,27.81
2023-08-26T13:50:17.076Z,27.79
2023-08-26T13:52:45.555Z,28.41
2023-08-26T13:55:12.502Z,28.58
2023-08-26T13:57:40.305Z,28.00
2023-08-26T14:00:07.876Z,27.75
2023-08-26T14:02:40.656Z,27.89
2023-08-26T14:05:08.767Z,28.51
2023-08-26T14:07:35.597Z,28.53
2023-08-26T14:10:02.621Z,27.87
2023-08-26T14:12:30.128Z,28.20
2023-08-26T14:14:56.943Z,28.27
2023-08-26T14:17:23.741Z,28.71
2023-08-26T14:19:51.218Z,29.54
2023-08-26T14:22:18.618Z,30.34
2023-08-26T14:24:49.143Z,30.27
2023-08-26T14:27:18.627Z,30.39
2023-08-26T14:29:45.366Z,29.60
2023-08-26T14:32:12.377Z,30.02
2023-08-26T14:34:39.425Z,30.00
2023-08-26T14:37:06.610Z,29.72
2023-08-26T14:39:33.762Z,30.44
2023-08-26T14:42:01.545Z,30.69
2023-08-26T14:44:32.779Z,31.13
2023-08-26T14:47:00.471Z,30.47
2023-08-26T14:49:27.319Z,31.02
2023-08-26T14:51:55.182Z,30.64
2023-08-26T14:54:22.009Z,29.61
2023-08-26T14:56:49.117Z,30.38
2023-08-26T14:59:17.950Z,30.41
2023-08-26T15:01:44.769Z,30.13
2023-08-26T15:04:14.237Z,30.47
2023-08-26T15:06:41.301Z,29.43
2023-08-26T15:09:08.166Z,28.97
2023-08-26T15:11:35.747Z,29.53
2023-08-26T15:14:02.610Z,29.72
2023-08-26T15:16:30.891Z,30.12
2023-08-26T15:18:58.356Z,29.57
2023-08-26T15:21:25.298Z,28.35
2023-08-26T15:23:52.736Z,29.03
2023-08-26T15:26:22.893Z,28.59
2023-08-26T15:28:51.619Z,28.95
2023-08-26T15:31:18.596Z,29.25
2023-08-26T15:33:45.394Z,28.58
2023-08-26T15:36:12.439Z,27.90
2023-08-26T15:38:40.398Z,27.57
2023-08-26T15:41:07.858Z,27.78
2023-08-26T15:43:35.995Z,27.60
2023-08-26T15:46:02.973Z,27.52
2023-08-26T15:48:31.001Z,27.52
2023-08-26T15:50:59.824Z,27.35
2023-08-26T15:53:28.332Z,27.23
2023-08-26T15:55:55.367Z,27.69
2023-08-26T15:58:22.296Z,28.02
2023-08-26T16:00:54.536Z,28.34
2023-08-26T16:03:21.711Z,28.51
2023-08-26T16:05:49.094Z,28.13
2023-08-26T16:08:16.422Z,27.86
2023-08-26T16:10:43.524Z,27.47
2023-08-26T16:13:14.515Z,27.55
2023-08-26T16:15:41.422Z,27.86
2023-08-26T16:18:08.256Z,27.99
2023-08-26T16:20:35.359Z,28.07
2023-08-26T16:23:02.246Z,27.82
2023-08-26T16:25:29.102Z,27.95
2023-08-26T16:27:56.500Z,28.12
2023-08-26T16:30:23.276Z,28.04
2023-08-26T16:32:51.944Z,27.90
2023-08-26T16:35:18.791Z,27.73
2023-08-26T16:37:45.709Z,27.37
2023-08-26T16:40:12.701Z,26.88
2023-08-26T16:42:40.506Z,26.79
2023-08-26T16:45:08.391Z,26.76
2023-08-26T16:47:35.547Z,26.56
2023-08-26T16:50:02.651Z,26.53
2023-08-26T16:52:29.795Z,26.33
2023-08-26T16:54:56.658Z,25.94
2023-08-26T16:57:23.506Z,25.93
2023-08-26T16:59:51.279Z,25.80
2023-08-26T17:02:18.542Z,25.60
2023-08-26T17:04:45.335Z,25.69
2023-08-26T17:07:16.744Z,25.72
2023-08-26T17:09:43.685Z,25.50
2023-08-26T17:12:13.505Z,25.48
2023-08-26T17:14:40.622Z,25.67
2023-08-26T17:17:07.460Z,25.76
2023-08-26T17:19:34.714Z,25.73
2023-08-26T17:22:04.065Z,25.96
2023-08-26T17:24:31.012Z,25.82
2023-08-26T17:26:57.928Z,25.63
2023-08-26T17:29:24.809Z,25.77
2023-08-26T17:31:52.489Z,25.63
2023-08-26T17:34:19.444Z,25.50
2023-08-26T17:36:46.491Z,25.47
2023-08-26T17:39:14.546Z,25.53
2023-08-26T17:41:41.538Z,25.44
2023-08-26T17:44:08.477Z,25.19
2023-08-26T17:46:36.340Z,25.23
2023-08-26T17:49:05.038Z,25.27
2023-08-26T17:51:31.941Z,25.26
2023-08-26T17:53:58.776Z,24.99
2023-08-26T17:56:25.538Z,25.10
2023-08-26T17:58:55.048Z,25.06
2023-08-26T18:01:21.965Z,25.04
2023-08-26T18:03:49.246Z,25.11
2023-08-26T18:06:16.223Z,24.86
2023-08-26T18:08:43.890Z,24.98
2023-08-26T18:11:11.003Z,25.04
2023-08-26T18:13:40.834Z,25.02
2023-08-26T18:16:08.266Z,24.93
2023-08-26T18:18:35.478Z,24.88
2023-08-26T18:21:02.327Z,24.85
2023-08-26T18:23:29.271Z,24.81
2023-08-26T18:25:56.338Z,24.80
2023-08-26T18:28:23.688Z,24.69
2023-08-26T18:30:51.202Z,24.62
2023-08-26T18:33:18.174Z,24.57
2023-08-26T18:35:45.635Z,24.01
2023-08-26T18:38:18.098Z,23.96
2023-08-26T18:40:57.476Z,23.28
2023-08-26T18:43:24.521Z,22.54
2023-08-26T18:45:52.124Z,22.41
2023-08-26T18:48:21.399Z,22.25
2023-08-26T18:51:08.450Z,21.62
2023-08-26T18:53:37.889Z,21.01
2023-08-26T18:56:04.936Z,20.05
2023-08-26T18:58:31.919Z,20.15
2023-08-26T19:00:58.859Z,19.92
2023-08-26T19:03:25.852Z,19.79
2023-08-26T19:05:52.758Z,19.09
2023-08-26T19:08:20.171Z,19.07
2023-08-26T19:10:47.455Z,18.71
2023-08-26T19:13:15.142Z,19.78
2023-08-26T19:15:42.750Z,19.93
2023-08-26T19:18:09.766Z,20.16
2023-08-26T19:20:38.149Z,19.39
2023-08-26T19:23:06.353Z,19.01
2023-08-26T19:25:33.812Z,18.92
2023-08-26T19:28:00.819Z,18.98
2023-08-26T19:30:31.457Z,19.65
2023-08-26T19:32:58.645Z,19.68
2023-08-26T19:35:25.828Z,19.97
2023-08-26T19:37:52.863Z,19.77
2023-08-26T19:40:19.687Z,19.69
2023-08-26T19:42:46.473Z,19.87
2023-08-26T19:45:13.318Z,20.07
2023-08-26T19:47:40.483Z,20.06
2023-08-26T19:50:07.761Z,20.22
2023-08-26T19:52:34.809Z,19.97
2023-08-26T19:55:03.934Z,20.32
2023-08-26T19:57:31.145Z,20.30
2023-08-26T19:59:58.007Z,20.25
2023-08-26T20:02:24.834Z,20.36
2023-08-26T20:04:51.817Z,20.30
2023-08-26T20:07:19.539Z,20.44
2023-08-26T20:09:46.321Z,20.36
2023-08-26T20:12:13.480Z,20.32
2023-08-26T20:14:41.814Z,20.49
2023-08-26T20:17:12.920Z,20.30
2023-08-26T20:19:39.856Z,20.02
2023-08-26T20:22:06.976Z,20.22
2023-08-26T20:24:35.042Z,20.17
2023-08-26T20:27:01.844Z,20.27
2023-08-26T20:29:28.544Z,20.00
2023-08-26T20:31:56.767Z,20.20
2023-08-26T20:34:24.990Z,20.23
2023-08-26T20:36:52.992Z,20.17
2023-08-26T20:39:19.861Z,20.04
2023-08-26T20:41:47.257Z,19.29
2023-08-26T20:44:14.165Z,19.57
2023-08-26T20:46:41.057Z,19.51
2023-08-26T20:49:09.679Z,19.20
2023-08-26T20:51:36.668Z,18.39
2023-08-26T20:54:04.245Z,18.96
2023-08-26T20:56:31.490Z,18.87
2023-08-26T20:58:58.347Z,19.17
2023-08-26T21:01:28.230Z,19.09
2023-08-26T21:03:55.279Z,19.38
2023-08-26T21:06:22.042Z,19.01
2023-08-26T21:08:49.776Z,19.13
2023-08-26T21:11:16.611Z,18.99
2023-08-26T21:13:43.460Z,19.39
2023-08-26T21:16:11.203Z,19.62
2023-08-26T21:18:39.045Z,19.32
2023-08-26T21:21:06.118Z,18.96
2023-08-26T21:23:32.911Z,19.51
2023-08-26T21:25:59.737Z,19.62
2023-08-26T21:28:26.617Z,19.14
2023-08-26T21:30:53.964Z,19.13
2023-08-26T21:33:22.098Z,19.30
2023-08-26T21:35:49.483Z,19.45
2023-08-26T21:38:17.387Z,19.59
2023-08-26T21:40:44.483Z,19.75
2023-08-26T21:43:12.718Z,19.80
2023-08-26T21:45:40.564Z,19.68
2023-08-26T21:48:09.869Z,19.85
2023-08-26T21:50:41.231Z,19.96
2023-08-26T21:53:09.041Z,19.96
2023-08-26T21:55:36.213Z,19.51
2023-08-26T21:58:08.057Z,19.58
2023-08-26T22:00:35.966Z,19.48
2023-08-26T22:03:03.678Z,19.39
2023-08-26T22:05:33.310Z,18.83
2023-08-26T22:08:00.656Z,18.82
2023-08-26T22:10:27.773Z,19.19
2023-08-26T22:12:57.122Z,18.97
2023-08-26T22:15:25.053Z,18.59
2023-08-26T22:17:52.866Z,18.91
2023-08-26T22:20:19.822Z,18.64
2023-08-26T22:22:47.682Z,18.92
2023-08-26T22:25:14.937Z,18.60
2023-08-26T22:27:42.366Z,18.84
2023-08-26T22:30:10.280Z,18.86
2023-08-26T22:32:37.945Z,18.27
2023-08-26T22:35:06.247Z,18.27
2023-08-26T22:37:36.301Z,18.35
2023-08-26T22:40:05.409Z,18.64
2023-08-26T22:42:33.452Z,18.74
2023-08-26T22:45:00.984Z,18.92
2023-08-26T22:47:29.061Z,19.09
2023-08-26T22:50:00.259Z,19.19
2023-08-26T22:52:27.304Z,19.03
2023-08-26T22:54:54.534Z,19.09
2023-08-26T22:57:21.885Z,19.15
2023-08-26T22:59:53.673Z,19.09
2023-08-26T23:02:21.979Z,18.73
2023-08-26T23:04:49.024Z,18.57
2023-08-26T23:07:16.436Z,18.55
2023-08-26T23:09:43.402Z,18.37
2023-08-26T23:12:10.417Z,18.39
2023-08-26T23:14:40.698Z,18.61
2023-08-26T23:17:08.126Z,18.39
2023-08-26T23:19:34.942Z,18.26
2023-08-26T23:22:03.624Z,18.44
2023-08-26T23:24:30.440Z,18.37
2023-08-26T23:26:57.482Z,18.57
2023-08-26T23:29:24.272Z,18.79
2023-08-26T23:31:54.113Z,18.63
2023-08-26T23:34:21.071Z,18.38
2023-08-26T23:36:48.048Z,18.39
2023-08-26T23:39:15.286Z,18.26
2023-08-26T23:41:43.096Z,18.26
2023-08-26T23:44:10.344Z,18.11
2023-08-26T23:46:37.346Z,18.37
2023-08-26T23:49:04.286Z,18.20
2023-08-26T23:51:31.987Z,18.37
2023-08-26T23:53:59.034Z,18.45
2023-08-26T23:56:25.761Z,18.75
2023-08-26T23:58:52.867Z,18.77
